Barr, South Carolina
Current Conditions -  °F | °C
As of 7:56 PM on Thursday 27 Nov 2014 (Local Time) from KCAE Reporting Station
Clear Clear  
Wind Chill: 43°   Ceiling: Unl
Heat Index: 47°   Visibility: 10mi
Dew Point: 27°   Wind: 9mph
Humidity: 46%   Direction: 330°NNW
Pressure: 30.26"   Gusts: 17mph
Location:  33.9903°N, 81.2681°W
Report Text: KCAE 280056Z 33008G15KT 10SM CLR 08/M03 A3026 RMK AO2 SLP246 T00831028
Loading
Personal Weather Stations






























Interactive Weather Map New forecast layout! Learn more

10-Day Weather Forecast

Advertisements
Track Severe Weather on mobile